Terminal Aerodrome Forecast
Issued by NWS

Home | Current Version | Previous Version | Text Only | Print | Product List | Glossary On
Versions: 1 2 3 4 5 6 7 8 9 10 11 12 13 14 15 16 17 18 19 20
000
FTUS43 KDVN 271100
TAFBRL
TAF
KBRL 271134Z 2712/2812 32005KT 5SM BR SCT015
      TEMPO 2712/2714 2SM BR BKN015
     FM271500 30017G25KT P6SM SCT060
     FM280200 32010KT P6SM SKC=

USA.gov is the U.S. government's official web portal to all federal, state and local government web resources and services.